Time;durP1;ratioP1;P1;durP2;ratioP2;P2;SDS_P1;SDS_P2;PMS_P1;PMS_P2;Temp;Humidity;BMP_temperature;BMP_pressure;BME280_temperature;BME280_humidity;BME280_pressure;Samples;Min_cycle;Max_cycle;Signal;HPM_P1;HPM_P2
2023/09/01 00:00:41;;;;;;;5.70;3.60;;;;;;;30.52;39.33;100652.88;102728;1289;62430;-81
2023/09/01 00:03:08;;;;;;;5.10;4.00;;;;;;;30.52;39.51;100653.98;102695;1290;61833;-82
2023/09/01 00:05:34;;;;;;;4.60;3.70;;;;;;;30.52;39.50;100654.55;102876;1289;61381;-82
2023/09/01 00:08:00;;;;;;;5.50;3.90;;;;;;;30.52;39.48;100659.28;102687;1291;61515;-81
2023/09/01 00:10:25;;;;;;;4.80;3.80;;;;;;;30.52;39.56;100660.33;102774;1291;62390;-82
2023/09/01 00:12:51;;;;;;;5.30;3.90;;;;;;;30.52;39.49;100666.73;102949;1295;61404;-82
2023/09/01 00:15:17;;;;;;;4.50;3.60;;;;;;;30.52;39.49;100662.41;102812;1291;61393;-82
2023/09/01 00:17:43;;;;;;;5.00;3.60;;;;;;;30.51;39.56;100665.73;102741;1295;65943;-82
2023/09/01 00:20:09;;;;;;;4.80;3.80;;;;;;;30.51;39.39;100666.30;102708;1289;61871;-81
2023/09/01 00:22:35;;;;;;;5.00;4.10;;;;;;;30.51;39.43;100669.87;102828;1294;61403;-82
2023/09/01 00:25:00;;;;;;;6.10;3.80;;;;;;;30.51;39.50;100668.06;102744;1290;61358;-81
2023/09/01 00:27:26;;;;;;;5.60;3.90;;;;;;;30.51;39.57;100673.01;102760;1293;61388;-81
2023/09/01 00:29:51;;;;;;;5.50;3.80;;;;;;;30.51;39.44;100673.93;102768;1295;61605;-81
2023/09/01 00:32:17;;;;;;;4.80;3.90;;;;;;;30.51;39.53;100672.80;102739;1291;61265;-81
2023/09/01 00:34:43;;;;;;;5.30;3.90;;;;;;;30.51;39.53;100669.60;102679;1291;61473;-81
2023/09/01 00:37:08;;;;;;;5.70;4.20;;;;;;;30.50;39.44;100668.21;102730;1295;61376;-82
2023/09/01 00:39:34;;;;;;;5.40;4.10;;;;;;;30.50;39.59;100673.12;102750;1291;62620;-82
2023/09/01 00:41:59;;;;;;;6.60;4.20;;;;;;;30.50;39.51;100674.95;102781;1289;61458;-81
2023/09/01 00:44:25;;;;;;;5.10;3.80;;;;;;;30.50;39.56;100678.94;102789;1291;62263;-82
2023/09/01 00:46:52;;;;;;;5.10;4.10;;;;;;;30.50;39.54;100678.77;102752;1291;61481;-82
2023/09/01 00:49:18;;;;;;;5.30;3.80;;;;;;;30.49;39.66;100678.46;102738;1289;64792;-82
2023/09/01 00:51:47;;;;;;;4.50;3.50;;;;;;;30.49;39.53;100678.29;102769;1291;62675;-82
2023/09/01 00:54:15;;;;;;;5.50;4.10;;;;;;;30.49;39.61;100680.17;102749;1295;62145;-82
2023/09/01 00:56:42;;;;;;;5.20;3.50;;;;;;;30.49;39.57;100678.67;102747;1292;61370;-82
2023/09/01 00:59:07;;;;;;;4.80;3.60;;;;;;;30.49;39.59;100679.41;102702;1290;63903;-82
2023/09/01 01:01:34;;;;;;;5.00;3.90;;;;;;;30.49;39.57;100681.46;102742;1291;61444;-81
2023/09/01 01:03:59;;;;;;;5.00;3.60;;;;;;;30.49;39.54;100685.44;102793;1291;61357;-81
2023/09/01 01:06:32;;;;;;;4.50;3.70;;;;;;;30.48;39.64;100687.83;102834;1290;61380;-82
2023/09/01 01:09:20;;;;;;;5.20;4.00;;;;;;;30.48;39.59;100688.95;102741;1292;64098;-82
2023/09/01 01:12:06;;;;;;;5.70;3.70;;;;;;;30.48;39.57;100693.55;102793;1291;65593;-82
2023/09/01 01:14:37;;;;;;;6.10;3.90;;;;;;;30.48;39.59;100695.93;102774;1291;62395;-83
2023/09/01 01:17:05;;;;;;;5.10;3.90;;;;;;;30.48;39.58;100698.08;102865;1290;61264;-83
2023/09/01 01:19:54;;;;;;;5.20;4.10;;;;;;;30.48;39.53;100697.19;102744;1291;63715;-82
2023/09/01 01:22:39;;;;;;;5.40;3.70;;;;;;;30.47;39.69;100699.27;102997;1290;66039;-82
2023/09/01 01:25:07;;;;;;;5.70;3.90;;;;;;;30.47;39.52;100703.10;102738;1293;62029;-84
2023/09/01 01:27:32;;;;;;;5.90;4.10;;;;;;;30.47;39.61;100705.63;102977;1290;61384;-82
2023/09/01 01:29:58;;;;;;;5.20;4.10;;;;;;;30.47;39.72;100705.84;102713;1291;61918;-82
2023/09/01 01:32:23;;;;;;;5.70;3.70;;;;;;;30.47;39.67;100707.81;102778;1293;62488;-83
2023/09/01 01:34:53;;;;;;;6.00;4.00;;;;;;;30.47;39.65;100707.61;102758;1291;61421;-82
2023/09/01 01:37:28;;;;;;;6.00;4.10;;;;;;;30.47;39.62;100713.80;102786;1291;61984;-83
2023/09/01 01:39:54;;;;;;;5.10;3.90;;;;;;;30.47;39.53;100712.71;102873;1293;63841;-83
2023/09/01 01:42:19;;;;;;;5.30;3.70;;;;;;;30.47;39.69;100712.38;102755;1291;61482;-82
2023/09/01 01:44:47;;;;;;;6.40;4.00;;;;;;;30.47;39.69;100712.02;102776;1291;61427;-82
2023/09/01 01:47:13;;;;;;;5.80;4.00;;;;;;;30.46;39.61;100712.95;102793;1296;61396;-83
2023/09/01 01:49:39;;;;;;;6.60;3.90;;;;;;;30.46;39.68;100716.41;102717;1291;61408;-82
2023/09/01 01:52:04;;;;;;;5.00;3.70;;;;;;;30.46;39.69;100716.82;102822;1293;61415;-82
2023/09/01 01:54:30;;;;;;;6.10;3.90;;;;;;;30.46;39.65;100719.59;102926;1289;61418;-82
2023/09/01 01:56:56;;;;;;;4.90;3.60;;;;;;;30.46;39.83;100721.91;102708;1291;61839;-82
2023/09/01 01:59:21;;;;;;;5.10;4.00;;;;;;;30.46;39.71;100721.16;102783;1291;61338;-82
2023/09/01 02:01:47;;;;;;;5.60;4.00;;;;;;;30.45;39.68;100720.89;102749;1290;61411;-82
2023/09/01 02:04:12;;;;;;;5.70;3.90;;;;;;;30.46;39.72;100720.62;102750;1289;61848;-82
2023/09/01 02:06:39;;;;;;;5.60;4.40;;;;;;;30.46;39.77;100721.02;102764;1295;61349;-82
2023/09/01 02:09:09;;;;;;;5.00;3.70;;;;;;;30.45;39.76;100724.89;102792;1291;62908;-82
2023/09/01 02:11:38;;;;;;;5.70;3.90;;;;;;;30.45;39.71;100723.09;102706;1295;64712;-82
2023/09/01 02:14:05;;;;;;;5.90;3.70;;;;;;;30.45;39.76;100722.21;102806;1291;66818;-83
2023/09/01 02:16:32;;;;;;;6.70;3.90;;;;;;;30.44;39.70;100720.09;102793;1291;61376;-83
2023/09/01 02:19:00;;;;;;;6.30;4.10;;;;;;;30.44;39.78;100720.77;102831;1291;62473;-83
2023/09/01 02:21:26;;;;;;;5.20;4.00;;;;;;;30.44;39.74;100726.24;102917;1293;63638;-82
2023/09/01 02:23:51;;;;;;;6.50;4.20;;;;;;;30.44;39.68;100725.36;102715;1290;61571;-82
2023/09/01 02:26:18;;;;;;;5.30;3.80;;;;;;;30.44;39.80;100730.81;102793;1289;61387;-83
2023/09/01 02:28:44;;;;;;;5.40;4.20;;;;;;;30.43;39.80;100732.34;102785;1291;61808;-83
2023/09/01 02:31:09;;;;;;;6.50;3.90;;;;;;;30.43;39.85;100735.61;102697;1296;62391;-83
2023/09/01 02:33:35;;;;;;;5.80;4.00;;;;;;;30.43;39.77;100736.70;102756;1293;61420;-83
2023/09/01 02:36:24;;;;;;;7.30;4.30;;;;;;;30.43;39.78;100739.96;102752;1296;61475;-82
2023/09/01 02:38:51;;;;;;;6.70;4.20;;;;;;;30.42;39.84;100739.52;102824;1289;61875;-82
2023/09/01 02:41:16;;;;;;;6.00;4.00;;;;;;;30.42;39.85;100741.16;102718;1293;61744;-82
2023/09/01 02:43:42;;;;;;;6.30;4.10;;;;;;;30.42;39.91;100744.22;102749;1291;62479;-82
2023/09/01 02:46:07;;;;;;;5.70;4.30;;;;;;;30.42;39.79;100749.88;102785;1291;62464;-83
2023/09/01 02:48:33;;;;;;;8.00;4.90;;;;;;;30.42;39.94;100752.94;102833;1291;61432;-83
2023/09/01 02:50:58;;;;;;;5.20;4.00;;;;;;;30.42;39.92;100758.92;102779;1291;61455;-82
2023/09/01 02:53:24;;;;;;;5.80;4.10;;;;;;;30.42;39.80;100761.14;102782;1293;61329;-82
2023/09/01 02:55:53;;;;;;;5.70;3.90;;;;;;;30.42;39.85;100761.54;102768;1295;63686;-83
2023/09/01 02:58:18;;;;;;;6.90;4.40;;;;;;;30.41;39.84;100760.87;102852;1291;65693;-83
2023/09/01 03:00:44;;;;;;;5.50;4.30;;;;;;;30.41;40.00;100765.94;102763;1291;61382;-83
2023/09/01 03:03:10;;;;;;;6.00;3.90;;;;;;;30.41;39.90;100765.60;102752;1291;61401;-82
2023/09/01 03:05:36;;;;;;;6.50;4.50;;;;;;;30.41;39.87;100769.95;102783;1291;61515;-82
2023/09/01 03:08:01;;;;;;;5.90;4.30;;;;;;;30.41;39.91;100772.54;102706;1289;61427;-82
2023/09/01 03:10:27;;;;;;;6.60;4.30;;;;;;;30.41;39.85;100770.70;102645;1298;61476;-82
2023/09/01 03:12:52;;;;;;;5.60;4.40;;;;;;;30.41;39.82;100768.73;102693;1296;61427;-82
2023/09/01 03:15:18;;;;;;;5.30;4.10;;;;;;;30.41;39.94;100765.80;102771;1291;61391;-83
2023/09/01 03:17:44;;;;;;;6.30;4.20;;;;;;;30.40;39.95;100763.52;102794;1291;61402;-83
2023/09/01 03:20:12;;;;;;;6.50;4.40;;;;;;;30.40;40.05;100766.25;102772;1291;62370;-82
2023/09/01 03:22:38;;;;;;;5.20;4.20;;;;;;;30.40;39.89;100767.88;102762;1291;62357;-82
2023/09/01 03:25:09;;;;;;;5.70;4.30;;;;;;;30.40;40.00;100768.13;102685;1291;61898;-82
2023/09/01 03:27:39;;;;;;;6.80;4.60;;;;;;;30.39;39.95;100772.74;102742;1291;63872;-83
2023/09/01 03:30:08;;;;;;;6.90;4.40;;;;;;;30.39;40.04;100774.17;102834;1290;65721;-82
2023/09/01 03:32:34;;;;;;;5.60;4.30;;;;;;;30.39;40.08;100776.02;102732;1291;62602;-82
2023/09/01 03:35:00;;;;;;;8.30;4.80;;;;;;;30.39;40.03;100775.86;102787;1291;61298;-83
2023/09/01 03:37:25;;;;;;;5.90;4.00;;;;;;;30.39;40.05;100778.40;102729;1296;61421;-82
2023/09/01 03:39:52;;;;;;;6.20;4.20;;;;;;;30.39;39.99;100784.02;102762;1291;62288;-81
2023/09/01 03:42:18;;;;;;;6.00;4.10;;;;;;;30.39;40.02;100785.48;102771;1289;61390;-81
2023/09/01 03:44:43;;;;;;;5.80;4.40;;;;;;;30.38;40.11;100784.27;102778;1291;61702;-81
2023/09/01 03:47:09;;;;;;;6.10;4.40;;;;;;;30.38;40.07;100782.65;102794;1290;62320;-82
2023/09/01 03:49:35;;;;;;;5.80;4.30;;;;;;;30.38;39.98;100779.19;102761;1291;63799;-81
2023/09/01 03:52:00;;;;;;;6.20;4.70;;;;;;;30.38;40.04;100778.84;102714;1291;62620;-82
2023/09/01 03:54:26;;;;;;;6.20;4.40;;;;;;;30.37;40.16;100781.30;102796;1290;61453;-81
2023/09/01 03:56:52;;;;;;;8.20;4.70;;;;;;;30.38;40.01;100788.69;102715;1291;61736;-81
2023/09/01 03:59:18;;;;;;;7.10;4.60;;;;;;;30.38;39.93;100790.48;102794;1291;62051;-81
2023/09/01 04:01:44;;;;;;;7.70;5.40;;;;;;;30.37;40.09;100792.54;102961;1290;64812;-81
2023/09/01 04:04:10;;;;;;;8.30;5.50;;;;;;;30.37;40.03;100788.21;102701;1291;62628;-81
2023/09/01 04:06:40;;;;;;;8.00;5.20;;;;;;;30.37;40.19;100789.64;102953;1291;61303;-82
2023/09/01 04:09:06;;;;;;;6.60;5.00;;;;;;;30.36;39.96;100791.17;102887;1293;61488;-81
2023/09/01 04:11:32;;;;;;;7.60;5.80;;;;;;;30.36;40.03;100795.77;102783;1291;64750;-81
2023/09/01 04:13:59;;;;;;;13.60;6.90;;;;;;;30.36;39.90;100800.33;102724;1296;61330;-81
2023/09/01 04:16:24;;;;;;;8.40;5.70;;;;;;;30.35;39.75;100802.91;102651;1291;61812;-81
2023/09/01 04:18:52;;;;;;;6.90;5.30;;;;;;;30.35;39.61;100805.27;102708;1291;62313;-82
2023/09/01 04:21:18;;;;;;;9.10;5.90;;;;;;;30.35;39.52;100809.18;102759;1291;61357;-82
2023/09/01 04:23:43;;;;;;;7.80;5.60;;;;;;;30.34;39.47;100811.77;102722;1293;62165;-82
2023/09/01 04:26:09;;;;;;;11.60;6.90;;;;;;;30.35;39.49;100816.08;102713;1291;61392;-83
2023/09/01 04:28:35;;;;;;;8.60;6.50;;;;;;;30.34;39.43;100815.98;102743;1290;61843;-82
2023/09/01 04:31:02;;;;;;;10.30;6.30;;;;;;;30.34;39.25;100821.30;102808;1291;62562;-82
2023/09/01 04:33:28;;;;;;;12.00;6.80;;;;;;;30.33;39.15;100822.09;102666;1292;63740;-82
2023/09/01 04:36:00;;;;;;;19.10;7.90;;;;;;;30.32;39.09;100823.98;102725;1293;61434;-82
2023/09/01 04:38:26;;;;;;;10.50;6.70;;;;;;;30.32;38.88;100828.00;102671;1294;62517;-82
2023/09/01 04:40:59;;;;;;;10.40;6.60;;;;;;;30.31;38.82;100830.79;102744;1291;61361;-82
2023/09/01 04:43:25;;;;;;;9.10;6.30;;;;;;;30.30;38.82;100828.20;102720;1291;63912;-82
2023/09/01 04:45:54;;;;;;;9.80;7.50;;;;;;;30.30;38.80;100828.98;102772;1293;62629;-82
2023/09/01 04:48:20;;;;;;;10.70;7.40;;;;;;;30.30;38.76;100831.55;102404;1298;61289;-82
2023/09/01 04:50:46;;;;;;;11.00;6.70;;;;;;;30.29;38.68;100832.11;102768;1291;61596;-82
2023/09/01 04:53:13;;;;;;;14.10;7.20;;;;;;;30.29;38.65;100830.90;102784;1291;62420;-81
2023/09/01 04:55:38;;;;;;;9.20;6.70;;;;;;;30.29;38.62;100833.45;102646;1291;62332;-82
2023/09/01 04:58:04;;;;;;;11.80;7.20;;;;;;;30.29;38.41;100832.70;102728;1291;61997;-82
2023/09/01 05:00:29;;;;;;;11.20;7.00;;;;;;;30.29;38.41;100842.30;102731;1291;61424;-82
2023/09/01 05:02:55;;;;;;;11.20;7.10;;;;;;;30.28;38.42;100837.67;102811;1291;62518;-82
2023/09/01 05:05:20;;;;;;;11.20;8.00;;;;;;;30.28;38.42;100841.28;102612;1289;61476;-82
2023/09/01 05:07:46;;;;;;;14.30;7.80;;;;;;;30.28;38.31;100845.36;102769;1296;61814;-82
2023/09/01 05:10:12;;;;;;;13.60;8.00;;;;;;;30.27;38.33;100849.55;102752;1291;62311;-82
2023/09/01 05:12:38;;;;;;;10.50;7.30;;;;;;;30.27;38.18;100853.19;102736;1296;61524;-82
2023/09/01 05:15:04;;;;;;;13.10;7.80;;;;;;;30.28;38.11;100855.16;102769;1291;61417;-82
2023/09/01 05:17:30;;;;;;;12.30;7.60;;;;;;;30.26;38.09;100855.64;102796;1291;62584;-82
2023/09/01 05:19:56;;;;;;;16.10;9.00;;;;;;;30.27;38.11;100854.69;102761;1294;61350;-82
2023/09/01 05:22:22;;;;;;;16.00;7.80;;;;;;;30.27;37.93;100858.88;102702;1296;61431;-82
2023/09/01 05:24:49;;;;;;;14.80;7.50;;;;;;;30.26;37.99;100859.45;102761;1291;61414;-82
2023/09/01 05:27:20;;;;;;;20.30;7.70;;;;;;;30.26;37.91;100860.23;103027;1290;62241;-82
2023/09/01 05:29:47;;;;;;;14.20;8.20;;;;;;;30.26;37.88;100862.59;102756;1289;65821;-82
2023/09/01 05:32:12;;;;;;;15.60;8.40;;;;;;;30.26;37.85;100862.59;102763;1294;62298;-82
2023/09/01 05:34:38;;;;;;;18.60;9.10;;;;;;;30.26;37.63;100860.06;102737;1291;61456;-82
2023/09/01 05:37:04;;;;;;;17.00;8.90;;;;;;;30.24;37.59;100860.27;102749;1292;61365;-82
2023/09/01 05:39:30;;;;;;;16.30;8.10;;;;;;;30.23;37.45;100868.41;102747;1293;62363;-82
2023/09/01 05:41:57;;;;;;;20.00;8.30;;;;;;;30.20;37.46;100872.63;102853;1291;61366;-82
2023/09/01 05:44:26;;;;;;;17.70;7.90;;;;;;;30.19;37.43;100874.59;103082;1289;62313;-82
2023/09/01 05:46:51;;;;;;;18.50;8.10;;;;;;;30.17;37.31;100872.81;102895;1291;61395;-83
2023/09/01 05:49:17;;;;;;;14.60;7.90;;;;;;;30.14;37.32;100872.85;102932;1291;61373;-83
2023/09/01 05:51:43;;;;;;;19.50;9.10;;;;;;;30.10;37.28;100872.89;103058;1291;61303;-82
2023/09/01 05:54:10;;;;;;;18.20;8.60;;;;;;;30.08;37.34;100873.48;102812;1291;61364;-82
2023/09/01 05:56:35;;;;;;;17.40;9.10;;;;;;;30.05;37.29;100877.16;103213;1290;61355;-82
2023/09/01 05:59:01;;;;;;;19.30;8.70;;;;;;;30.04;37.27;100879.54;102884;1291;62145;-83
2023/09/01 06:01:32;;;;;;;21.40;8.50;;;;;;;30.02;37.26;100880.98;102521;1291;450859;-82
2023/09/01 06:03:59;;;;;;;23.40;8.80;;;;;;;30.01;37.39;100883.82;102884;1291;61576;-83
2023/09/01 06:06:24;;;;;;;22.90;9.00;;;;;;;30.00;37.29;100888.61;102910;1290;61300;-83
2023/09/01 06:08:50;;;;;;;17.90;8.80;;;;;;;30.01;37.26;100891.31;103333;1291;61399;-82
2023/09/01 06:11:16;;;;;;;20.40;9.20;;;;;;;30.00;37.36;100892.64;102899;1295;61301;-82
2023/09/01 06:13:42;;;;;;;22.30;9.70;;;;;;;30.00;37.21;100890.96;103081;1291;62606;-83
2023/09/01 06:16:09;;;;;;;19.40;9.60;;;;;;;30.01;37.30;100896.86;102892;1290;61450;-84
2023/09/01 06:18:34;;;;;;;14.60;8.70;;;;;;;30.02;37.34;100895.92;103018;1290;61841;-82
2023/09/01 06:21:00;;;;;;;18.90;8.80;;;;;;;30.02;37.35;100898.62;102896;1291;61302;-81
2023/09/01 06:23:26;;;;;;;19.80;8.60;;;;;;;30.02;37.34;100902.23;102913;1293;61455;-82
2023/09/01 06:25:52;;;;;;;19.10;8.70;;;;;;;30.02;37.24;100900.81;102889;1293;61457;-81
2023/09/01 06:28:18;;;;;;;17.80;7.90;;;;;;;30.02;37.17;100900.02;103040;1291;62181;-83
2023/09/01 06:30:43;;;;;;;14.50;7.50;;;;;;;30.03;37.03;100904.48;103015;1293;61334;-82
2023/09/01 06:33:09;;;;;;;11.00;6.30;;;;;;;30.03;37.08;100904.48;102925;1291;61408;-82
2023/09/01 06:35:35;;;;;;;10.70;5.60;;;;;;;30.04;37.02;100906.52;102929;1291;61301;-82
2023/09/01 06:38:04;;;;;;;12.70;5.70;;;;;;;30.05;36.79;100906.92;103031;1291;61299;-82
2023/09/01 06:40:30;;;;;;;10.80;5.70;;;;;;;30.06;36.76;100906.33;103080;1291;61396;-82
2023/09/01 06:42:55;;;;;;;9.50;5.50;;;;;;;30.06;36.62;100910.34;102991;1293;61313;-81
2023/09/01 06:45:21;;;;;;;8.20;5.00;;;;;;;30.07;36.59;100915.14;102976;1291;61428;-82
2023/09/01 06:47:49;;;;;;;9.50;5.40;;;;;;;30.07;36.46;100915.78;102961;1291;62562;-82
2023/09/01 06:50:14;;;;;;;8.00;4.80;;;;;;;30.07;36.48;100913.78;103062;1291;61277;-82
2023/09/01 06:52:40;;;;;;;9.80;5.00;;;;;;;30.09;36.24;100912.86;102910;1291;61409;-82
2023/09/01 06:55:06;;;;;;;6.90;4.80;;;;;;;30.10;36.20;100916.02;103129;1296;61402;-83
2023/09/01 06:57:31;;;;;;;7.20;4.30;;;;;;;30.11;36.18;100917.22;103217;1290;62611;-82
2023/09/01 06:59:57;;;;;;;8.40;5.10;;;;;;;30.13;36.07;100922.70;103296;1291;61285;-82
2023/09/01 07:02:23;;;;;;;10.50;4.70;;;;;;;30.13;36.01;100923.31;103099;1291;61381;-82
2023/09/01 07:04:49;;;;;;;8.00;4.30;;;;;;;30.13;35.90;100923.19;103155;1290;61310;-82
2023/09/01 07:07:16;;;;;;;12.00;5.10;;;;;;;30.12;35.76;100924.00;103189;1296;61391;-82
2023/09/01 07:09:41;;;;;;;7.20;4.10;;;;;;;30.13;35.86;100922.42;103105;1291;61321;-83
2023/09/01 07:12:07;;;;;;;6.10;4.20;;;;;;;30.15;35.73;100926.45;103225;1290;61473;-82
2023/09/01 07:14:32;;;;;;;8.70;4.90;;;;;;;30.16;35.57;100928.53;102888;1291;61376;-82
2023/09/01 07:16:58;;;;;;;9.10;4.00;;;;;;;30.17;35.54;100927.27;103507;1289;61421;-83
2023/09/01 07:19:24;;;;;;;10.70;4.10;;;;;;;30.18;35.53;100929.35;103186;1290;61894;-83
2023/09/01 07:21:50;;;;;;;10.40;4.30;;;;;;;30.18;35.52;100933.33;103313;1293;61569;-81
2023/09/01 07:24:16;;;;;;;8.00;4.90;;;;;;;30.19;35.38;100939.05;103122;1291;62057;-81
2023/09/01 07:26:43;;;;;;;8.20;4.40;;;;;;;30.19;35.27;100944.12;103318;1291;61390;-82
2023/09/01 07:29:10;;;;;;;6.30;4.20;;;;;;;30.17;35.35;100947.92;103288;1293;61470;-83
2023/09/01 07:31:35;;;;;;;10.10;4.30;;;;;;;30.14;35.11;100946.46;103336;1289;61401;-83
2023/09/01 07:34:01;;;;;;;8.70;4.20;;;;;;;30.14;35.03;100946.48;103325;1290;63115;-82
2023/09/01 07:36:27;;;;;;;8.40;4.00;;;;;;;30.15;35.08;100946.77;103464;1296;59533;-82
2023/09/01 07:38:52;;;;;;;6.20;4.60;;;;;;;30.15;35.02;100945.48;103358;1293;62085;-82
2023/09/01 07:41:18;;;;;;;10.40;4.50;;;;;;;30.16;34.98;100948.44;103151;1293;66904;-82
2023/09/01 07:43:43;;;;;;;6.20;4.50;;;;;;;30.15;34.99;100950.88;102885;1294;61812;-82
2023/09/01 07:46:09;;;;;;;7.20;4.10;;;;;;;30.15;34.84;100957.65;103172;1293;62549;-83
2023/09/01 07:48:36;;;;;;;7.00;4.60;;;;;;;30.15;34.98;100954.22;103253;1290;61306;-81
2023/09/01 07:51:02;;;;;;;8.80;5.50;;;;;;;30.17;34.82;100957.98;103448;1294;61440;-82
2023/09/01 07:53:28;;;;;;;7.20;4.70;;;;;;;30.18;34.92;100960.52;103441;1291;61301;-82
2023/09/01 07:55:54;;;;;;;6.80;4.30;;;;;;;30.21;34.98;100962.20;103333;1291;61567;-82
2023/09/01 07:58:20;;;;;;;7.90;4.20;;;;;;;30.22;34.93;100960.61;103363;1291;61428;-82
2023/09/01 08:00:46;;;;;;;7.20;4.50;;;;;;;30.24;35.00;100960.67;103032;1293;63917;-83
2023/09/01 08:03:11;;;;;;;6.90;4.50;;;;;;;30.25;35.09;100961.29;103340;1293;61427;-83
2023/09/01 08:05:37;;;;;;;7.00;4.60;;;;;;;30.26;35.14;100958.43;102914;1294;62597;-83
2023/09/01 08:08:04;;;;;;;8.20;4.30;;;;;;;30.28;35.13;100959.73;103266;1296;61300;-83
2023/09/01 08:10:30;;;;;;;6.00;4.00;;;;;;;30.29;35.17;100958.84;103017;1296;61676;-83
2023/09/01 08:12:55;;;;;;;6.30;4.40;;;;;;;30.30;35.18;100961.60;103328;1291;61397;-83
2023/09/01 08:15:21;;;;;;;8.40;4.30;;;;;;;30.32;35.18;100960.38;103150;1296;62204;-83
2023/09/01 08:17:46;;;;;;;8.90;5.10;;;;;;;30.32;35.24;100967.59;103161;1292;61380;-82
2023/09/01 08:20:12;;;;;;;6.90;4.80;;;;;;;30.33;35.18;100965.66;103079;1291;61412;-83
2023/09/01 08:22:37;;;;;;;8.60;4.50;;;;;;;30.34;35.15;100964.50;103234;1293;62311;-83
2023/09/01 08:25:03;;;;;;;5.90;4.10;;;;;;;30.34;35.14;100966.48;103034;1292;61438;-83
2023/09/01 08:27:29;;;;;;;6.40;4.60;;;;;;;30.35;35.18;100966.38;103191;1293;61425;-83
2023/09/01 08:29:56;;;;;;;6.80;4.00;;;;;;;30.35;35.23;100966.56;103269;1296;61431;-83
2023/09/01 08:32:21;;;;;;;6.60;4.50;;;;;;;30.35;35.24;100967.08;103051;1291;61369;-83
2023/09/01 08:34:47;;;;;;;5.40;4.20;;;;;;;30.36;35.32;100968.84;103083;1290;61428;-83
2023/09/01 08:37:15;;;;;;;7.60;4.50;;;;;;;30.36;35.25;100965.84;103141;1293;61460;-83
2023/09/01 08:39:42;;;;;;;7.50;4.50;;;;;;;30.36;35.14;100970.56;103125;1293;61849;-83
2023/09/01 08:42:08;;;;;;;6.90;4.70;;;;;;;30.37;35.14;100971.77;103098;1293;61352;-83
2023/09/01 08:44:35;;;;;;;6.80;4.30;;;;;;;30.37;35.13;100971.02;103409;1294;61300;-83
2023/09/01 08:47:01;;;;;;;8.10;4.90;;;;;;;30.38;35.21;100974.08;102939;1293;65847;-83
2023/09/01 08:49:27;;;;;;;8.40;4.50;;;;;;;30.37;35.14;100969.56;102829;1291;61492;-83
2023/09/01 08:51:55;;;;;;;6.50;4.40;;;;;;;30.37;35.17;100969.06;102925;1293;61412;-83
2023/09/01 08:54:21;;;;;;;8.60;4.10;;;;;;;30.38;35.13;100972.79;102769;1297;64744;-83
2023/09/01 08:56:48;;;;;;;6.60;4.10;;;;;;;30.38;35.15;100977.08;102803;1295;61386;-83
2023/09/01 08:59:14;;;;;;;6.80;4.50;;;;;;;30.39;35.09;100976.49;102820;1294;61327;-83
2023/09/01 09:01:39;;;;;;;6.20;4.10;;;;;;;30.39;35.02;100978.84;102943;1290;61457;-83
2023/09/01 09:04:05;;;;;;;6.40;3.90;;;;;;;30.38;35.12;100973.97;102771;1296;61442;-82
2023/09/01 09:06:37;;;;;;;9.10;4.40;;;;;;;30.39;35.04;100972.81;102915;1292;61452;-83
2023/09/01 09:09:11;;;;;;;6.90;4.50;;;;;;;30.39;34.97;100974.92;102972;1291;61318;-82
2023/09/01 09:11:38;;;;;;;6.40;4.40;;;;;;;30.40;34.99;100976.73;102879;1293;61312;-83
2023/09/01 09:14:06;;;;;;;6.60;3.90;;;;;;;30.40;34.96;100980.17;102792;1294;64641;-82
2023/09/01 09:16:32;;;;;;;5.90;4.10;;;;;;;30.40;35.02;100983.38;102802;1291;66730;-83
2023/09/01 09:18:57;;;;;;;6.20;4.20;;;;;;;30.41;34.92;100984.73;103092;1290;61332;-83
2023/09/01 09:21:29;;;;;;;6.40;3.80;;;;;;;30.41;34.93;100983.52;103207;1294;61393;-83
2023/09/01 09:23:56;;;;;;;6.30;3.90;;;;;;;30.41;34.83;100981.84;102955;1291;64713;-83
2023/09/01 09:26:26;;;;;;;5.40;4.00;;;;;;;30.42;34.95;100984.48;102844;1294;66051;-83
2023/09/01 09:28:52;;;;;;;7.30;4.30;;;;;;;30.42;34.96;100988.45;102873;1294;62000;-82
2023/09/01 09:31:17;;;;;;;6.70;4.50;;;;;;;30.42;34.90;100985.70;102933;1293;61501;-83
2023/09/01 09:33:43;;;;;;;7.00;4.30;;;;;;;30.42;34.86;100981.72;102815;1291;61488;-82
2023/09/01 09:36:08;;;;;;;6.40;3.90;;;;;;;30.43;34.82;100982.90;102841;1299;61460;-83
2023/09/01 09:38:49;;;;;;;7.60;4.00;;;;;;;30.43;34.77;100984.91;102984;1294;61814;-82
2023/09/01 09:41:15;;;;;;;6.40;4.60;;;;;;;30.42;34.86;100985.16;102768;1297;61413;-82
2023/09/01 09:43:45;;;;;;;5.10;3.80;;;;;;;30.44;34.66;100987.20;102862;1292;61412;-83
2023/09/01 09:46:11;;;;;;;6.80;3.90;;;;;;;30.42;34.70;100983.48;102814;1296;63673;-83
2023/09/01 09:48:38;;;;;;;5.40;4.00;;;;;;;30.43;34.70;100982.55;102740;1290;61470;-82
2023/09/01 09:51:09;;;;;;;5.60;3.90;;;;;;;30.42;34.67;100981.70;102970;1293;61339;-83
2023/09/01 09:53:39;;;;;;;5.90;3.70;;;;;;;30.43;34.66;100982.39;102976;1293;61342;-83
2023/09/01 09:56:33;;;;;;;6.20;4.40;;;;;;;30.43;34.86;100983.65;102774;1293;63889;-83
2023/09/01 09:59:05;;;;;;;8.10;3.90;;;;;;;30.43;34.78;100982.92;102875;1293;65812;-81
2023/09/01 10:01:35;;;;;;;7.10;4.00;;;;;;;30.43;34.72;100982.15;102893;1294;61326;-82
2023/09/01 10:04:04;;;;;;;6.80;4.00;;;;;;;30.44;34.78;100979.23;102787;1293;61326;-82
2023/09/01 10:06:40;;;;;;;6.90;4.00;;;;;;;30.44;34.71;100978.14;102716;1299;63675;-82
2023/09/01 10:09:05;;;;;;;5.10;3.90;;;;;;;30.44;34.73;100977.36;103072;1294;66010;-82
2023/09/01 10:11:31;;;;;;;6.00;4.10;;;;;;;30.45;34.52;100980.01;102812;1294;62054;-82
2023/09/01 10:13:57;;;;;;;6.40;4.00;;;;;;;30.46;34.60;100982.31;102762;1293;61835;-82
2023/09/01 10:16:23;;;;;;;5.90;3.90;;;;;;;30.46;34.74;100984.29;102919;1290;61366;-82
2023/09/01 10:18:49;;;;;;;5.90;4.10;;;;;;;30.46;34.81;100978.05;102892;1294;61464;-82
2023/09/01 10:21:16;;;;;;;7.10;4.20;;;;;;;30.46;34.81;100978.98;102869;1290;61412;-82
2023/09/01 10:23:43;;;;;;;5.90;3.90;;;;;;;30.47;34.86;100979.13;102725;1290;61488;-83
2023/09/01 10:26:12;;;;;;;6.20;4.00;;;;;;;30.47;34.85;100981.03;102986;1291;61354;-82
2023/09/01 10:29:01;;;;;;;6.80;4.10;;;;;;;30.48;34.98;100987.50;102721;1296;65642;-83
2023/09/01 10:31:30;;;;;;;5.50;3.80;;;;;;;30.47;34.90;100981.40;102861;1291;61402;-83
2023/09/01 10:34:13;;;;;;;6.00;3.90;;;;;;;30.47;35.00;100981.02;102898;1291;61397;-83
2023/09/01 10:36:43;;;;;;;7.60;3.90;;;;;;;30.47;34.97;100979.23;103318;1291;63678;-83
2023/09/01 10:39:23;;;;;;;6.50;4.40;;;;;;;30.48;35.06;100979.70;103168;1296;65895;-83
2023/09/01 10:42:07;;;;;;;5.50;3.80;;;;;;;30.48;35.16;100985.13;103052;1291;61880;-83
2023/09/01 10:44:39;;;;;;;6.40;3.90;;;;;;;30.48;35.28;100987.88;102697;1291;62590;-83
2023/09/01 10:47:33;;;;;;;5.80;3.90;;;;;;;30.47;35.18;100985.39;102990;1293;63880;-83
2023/09/01 10:50:01;;;;;;;5.60;4.00;;;;;;;30.48;35.18;100984.81;102910;1291;65801;-83
2023/09/01 10:52:28;;;;;;;6.10;4.00;;;;;;;30.48;35.25;100986.45;102946;1292;61472;-83
2023/09/01 10:54:59;;;;;;;5.50;3.90;;;;;;;30.48;35.31;100985.13;102969;1293;61404;-83
2023/09/01 10:57:46;;;;;;;5.70;3.80;;;;;;;30.49;35.41;100981.27;102889;1293;64836;-83
2023/09/01 11:00:27;;;;;;;5.40;4.00;;;;;;;30.48;35.35;100983.88;102970;1293;66662;-83
2023/09/01 11:02:54;;;;;;;5.40;4.00;;;;;;;30.48;35.34;100979.90;102879;1291;61264;-83
2023/09/01 11:05:37;;;;;;;5.60;3.60;;;;;;;30.48;35.31;100981.33;102962;1291;61425;-83
2023/09/01 11:08:15;;;;;;;4.90;4.00;;;;;;;30.47;35.38;100978.00;103160;1292;64791;-82
2023/09/01 11:10:42;;;;;;;5.50;4.10;;;;;;;30.48;35.42;100973.17;102874;1289;66785;-83
2023/09/01 11:13:19;;;;;;;5.60;3.90;;;;;;;30.48;35.43;100976.95;102745;1291;61291;-83
2023/09/01 11:15:49;;;;;;;4.70;3.60;;;;;;;30.48;35.39;100972.05;102837;1291;61278;-83